Time;durP1;ratioP1;P1;durP2;ratioP2;P2;SDS_P1;SDS_P2;PMS_P1;PMS_P2;Temp;Humidity;BMP_temperature;BMP_pressure;BME280_temperature;BME280_humidity;BME280_pressure;Samples;Min_cycle;Max_cycle;Signal;HPM_P1;HPM_P2
2022/09/11 00:01:00;;;;;;;9.07;3.90;;;;;;;15.82;100.00;99085.36;1593562;88;21639;-62
2022/09/11 00:03:28;;;;;;;4.80;4.10;;;;;;;15.82;100.00;99091.50;1586372;89;21497;-61
2022/09/11 00:05:55;;;;;;;4.60;4.20;;;;;;;15.79;100.00;99090.91;1633800;86;21576;-62
2022/09/11 00:08:22;;;;;;;5.70;4.15;;;;;;;15.80;100.00;99085.95;1626260;86;21013;-62
2022/09/11 00:10:49;;;;;;;4.92;4.22;;;;;;;15.80;100.00;99083.30;1607066;87;21558;-60
2022/09/11 00:13:21;;;;;;;4.30;4.00;;;;;;;15.80;100.00;99080.66;1620357;87;21629;-61
2022/09/11 00:15:49;;;;;;;7.33;4.83;;;;;;;15.81;100.00;99076.58;1603265;87;21499;-61
2022/09/11 00:18:22;;;;;;;6.50;4.50;;;;;;;15.81;100.00;99065.13;1604012;87;21548;-60
2022/09/11 00:20:52;;;;;;;5.40;4.47;;;;;;;15.82;100.00;99067.64;1606323;87;21673;-60
2022/09/11 00:23:20;;;;;;;4.53;4.12;;;;;;;15.84;100.00;99071.06;1623975;87;22471;-61
2022/09/11 00:25:47;;;;;;;5.75;4.53;;;;;;;15.87;100.00;99066.00;1600654;88;21011;-61
2022/09/11 00:28:20;;;;;;;5.47;4.28;;;;;;;15.90;100.00;99059.16;1601938;87;21655;-62
2022/09/11 00:31:01;;;;;;;6.70;4.42;;;;;;;15.89;100.00;99058.28;1619622;87;21470;-62
2022/09/11 00:33:28;;;;;;;10.13;4.55;;;;;;;15.94;100.00;99049.52;1597136;87;21086;-65
2022/09/11 00:36:04;;;;;;;5.08;4.40;;;;;;;15.97;100.00;99056.39;1618878;87;21914;-61
2022/09/11 00:38:33;;;;;;;7.65;4.15;;;;;;;15.98;100.00;99051.47;1613063;87;21592;-61
2022/09/11 00:41:01;;;;;;;5.37;4.50;;;;;;;16.01;100.00;99064.96;1578083;89;21625;-62
2022/09/11 00:43:29;;;;;;;5.80;4.30;;;;;;;16.02;100.00;99062.69;1616911;87;27061;-61
2022/09/11 00:46:02;;;;;;;5.15;4.22;;;;;;;16.01;100.00;99066.29;1600221;87;21022;-61
2022/09/11 00:48:32;;;;;;;4.90;4.20;;;;;;;16.02;100.00;99051.59;1620010;87;21820;-61
2022/09/11 00:51:00;;;;;;;5.25;4.33;;;;;;;16.04;100.00;99056.30;1589496;88;21628;-62
2022/09/11 00:53:28;;;;;;;7.30;4.80;;;;;;;16.05;100.00;99057.14;1616633;87;21602;-61
2022/09/11 00:55:57;;;;;;;5.28;4.58;;;;;;;16.13;100.00;99058.76;1591378;88;21559;-60
2022/09/11 00:58:27;;;;;;;5.25;4.37;;;;;;;16.16;100.00;99039.94;1620123;87;21586;-61
2022/09/11 01:00:55;;;;;;;5.10;4.25;;;;;;;16.18;100.00;99038.05;1601293;87;21745;-60
2022/09/11 01:03:24;;;;;;;5.37;4.40;;;;;;;16.18;100.00;99043.35;1614419;87;20991;-61
2022/09/11 01:05:51;;;;;;;7.83;4.55;;;;;;;16.20;100.00;99040.56;1574011;89;21017;-60
2022/09/11 01:08:19;;;;;;;6.53;4.62;;;;;;;16.20;100.00;99040.10;1607103;87;21495;-61
2022/09/11 01:11:12;;;;;;;4.95;4.28;;;;;;;16.23;100.00;99047.81;1580591;89;21062;-61
2022/09/11 01:14:05;;;;;;;9.10;4.78;;;;;;;16.24;100.00;99041.55;1610956;87;21927;-61
2022/09/11 01:16:49;;;;;;;5.25;4.20;;;;;;;16.26;100.00;99045.42;1612200;87;21072;-60
2022/09/11 01:20:15;;;;;;;4.97;4.28;;;;;;;16.28;100.00;99048.31;1595845;87;21532;-62
2022/09/11 01:23:33;;;;;;;4.53;4.12;;;;;;;16.31;100.00;99048.55;1540283;90;21594;-60
2022/09/11 01:26:24;;;;;;;7.95;4.90;;;;;;;16.29;100.00;99039.86;1544478;90;21709;-59
2022/09/11 01:29:07;;;;;;;4.92;4.53;;;;;;;16.28;100.00;99048.31;1601903;88;21748;-61
2022/09/11 01:31:46;;;;;;;5.10;4.40;;;;;;;16.31;100.00;99037.48;1600430;87;21584;-60
2022/09/11 01:34:28;;;;;;;6.62;4.37;;;;;;;16.37;100.00;99037.95;1620261;87;21691;-60
2022/09/11 01:37:03;;;;;;;4.35;3.95;;;;;;;16.39;100.00;99041.33;1596669;87;21538;-60
2022/09/11 01:39:36;;;;;;;4.97;4.47;;;;;;;16.40;100.00;99032.42;1598669;87;21718;-59
2022/09/11 01:42:06;;;;;;;6.60;3.98;;;;;;;16.44;100.00;99028.08;1618405;87;22079;-60
2022/09/11 01:44:50;;;;;;;5.15;4.08;;;;;;;16.50;100.00;99032.06;1603246;87;21589;-59
2022/09/11 01:47:18;;;;;;;7.28;3.98;;;;;;;16.52;100.00;99039.45;1612101;87;21518;-60
2022/09/11 01:50:06;;;;;;;5.77;4.37;;;;;;;16.52;100.00;99034.15;1620871;87;21593;-60
2022/09/11 01:52:57;;;;;;;6.83;4.95;;;;;;;16.56;100.00;99027.63;1593251;88;21579;-59
2022/09/11 01:57:08;;;;;;;5.35;4.10;;;;;;;16.03;100.00;99044.48;1787137;78;22951;-63
2022/09/11 01:59:40;;;;;;;5.20;3.98;;;;;;;16.49;100.00;99016.64;1777464;80;21582;-61
2022/09/11 02:02:10;;;;;;;3.67;3.37;;;;;;;16.59;100.00;99019.41;1759397;80;21918;-60
2022/09/11 02:04:47;;;;;;;4.08;3.67;;;;;;;16.65;100.00;99028.25;1773581;80;21513;-61
2022/09/11 02:07:31;;;;;;;5.60;3.70;;;;;;;16.66;100.00;99020.63;1771179;80;21568;-58
2022/09/11 02:10:03;;;;;;;7.28;4.33;;;;;;;16.66;100.00;99017.98;1705540;80;21135;-60
2022/09/11 02:12:43;;;;;;;4.55;3.58;;;;;;;16.69;100.00;99009.79;1732834;80;21604;-60
2022/09/11 02:15:12;;;;;;;4.37;3.98;;;;;;;16.68;100.00;99014.72;1765192;80;21953;-60
2022/09/11 02:18:00;;;;;;;4.58;3.98;;;;;;;16.74;100.00;99012.94;1775770;80;21015;-59
2022/09/11 02:20:28;;;;;;;4.03;3.72;;;;;;;16.78;100.00;99013.52;1763847;79;20953;-60
2022/09/11 02:22:55;;;;;;;5.00;4.28;;;;;;;16.79;100.00;99007.25;1770305;80;22496;-60
2022/09/11 02:25:23;;;;;;;5.70;4.40;;;;;;;16.81;100.00;99004.48;1724179;80;21538;-61
2022/09/11 02:27:53;;;;;;;4.70;4.22;;;;;;;16.84;100.00;99003.80;1757312;80;22050;-60
2022/09/11 02:30:20;;;;;;;5.30;4.15;;;;;;;16.87;100.00;98998.22;1763285;80;21490;-60
2022/09/11 02:32:47;;;;;;;6.37;4.20;;;;;;;16.89;100.00;99006.91;1757502;80;21451;-60
2022/09/11 02:35:15;;;;;;;3.90;3.58;;;;;;;16.89;100.00;99006.91;1774228;80;22214;-62
2022/09/11 02:37:56;;;;;;;6.90;4.83;;;;;;;16.93;100.00;99007.05;1767721;80;21600;-61
2022/09/11 02:40:51;;;;;;;5.05;3.87;;;;;;;16.94;100.00;99021.16;1728288;81;21805;-60
2022/09/11 02:43:51;;;;;;;5.75;4.78;;;;;;;16.97;100.00;99021.39;1716291;82;21526;-60
2022/09/11 02:46:45;;;;;;;4.58;4.10;;;;;;;16.97;100.00;99016.95;1721257;82;21555;-60
2022/09/11 02:49:40;;;;;;;5.03;3.47;;;;;;;17.00;100.00;99031.78;1692956;82;21597;-59
2022/09/11 02:52:27;;;;;;;5.70;3.12;;;;;;;17.00;100.00;99027.80;1713854;82;21593;-61
2022/09/11 02:55:14;;;;;;;4.08;3.77;;;;;;;17.06;100.00;99029.47;1727375;82;21831;-59
2022/09/11 02:57:56;;;;;;;4.62;3.62;;;;;;;17.10;100.00;99026.95;1712394;83;21610;-60
2022/09/11 03:00:23;;;;;;;4.28;3.98;;;;;;;17.11;100.00;99033.11;1767830;80;21546;-61
2022/09/11 03:02:49;;;;;;;4.22;3.52;;;;;;;17.11;100.00;99036.59;1743808;80;20957;-60
2022/09/11 03:05:17;;;;;;;4.12;3.65;;;;;;;17.13;100.00;99036.48;1760981;80;21419;-60
2022/09/11 03:07:45;;;;;;;4.15;3.62;;;;;;;17.16;100.00;99044.67;1765400;80;21830;-60
2022/09/11 03:10:11;;;;;;;2.55;2.35;;;;;;;17.13;100.00;99050.59;1769462;80;21561;-60
2022/09/11 03:12:38;;;;;;;2.40;2.20;;;;;;;17.16;100.00;99060.61;1744842;80;21611;-60
2022/09/11 03:15:09;;;;;;;1.77;1.67;;;;;;;17.12;100.00;99064.86;1770994;80;22037;-61
2022/09/11 03:17:36;;;;;;;1.40;1.30;;;;;;;17.11;100.00;99063.16;1762213;80;21624;-60
2022/09/11 03:20:04;;;;;;;1.60;1.50;;;;;;;17.03;100.00;99065.59;1761070;80;21866;-61
2022/09/11 03:22:30;;;;;;;1.30;0.93;;;;;;;16.95;100.00;99066.65;1749185;80;21506;-61
2022/09/11 03:24:58;;;;;;;2.30;1.35;;;;;;;16.90;100.00;99067.52;1760886;80;21451;-60
2022/09/11 03:27:26;;;;;;;1.00;1.00;;;;;;;16.81;100.00;99073.50;1768351;80;21462;-60
2022/09/11 03:29:54;;;;;;;1.30;1.20;;;;;;;16.72;100.00;99075.89;1769948;80;21506;-60
2022/09/11 03:32:21;;;;;;;1.05;1.05;;;;;;;16.64;100.00;99081.45;1757441;80;21870;-61
2022/09/11 03:34:50;;;;;;;0.90;0.90;;;;;;;16.58;100.00;99078.78;1764674;80;21443;-60
2022/09/11 03:37:17;;;;;;;0.93;0.78;;;;;;;16.48;100.00;99081.75;1752478;80;20947;-62
2022/09/11 03:39:47;;;;;;;1.00;0.82;;;;;;;16.45;100.00;99086.83;1763047;80;21511;-61
2022/09/11 03:42:13;;;;;;;1.40;1.30;;;;;;;16.43;100.00;99089.23;1759985;80;21479;-60
2022/09/11 03:44:42;;;;;;;1.60;1.50;;;;;;;16.43;100.00;99093.22;1752963;80;22207;-59
2022/09/11 03:47:10;;;;;;;2.15;2.00;;;;;;;16.40;100.00;99089.46;1755026;80;21561;-61
2022/09/11 03:49:38;;;;;;;;;;;;;;;16.34;100.00;99094.75;1761604;80;21482;-60
2022/09/11 03:52:05;;;;;;;2.10;2.00;;;;;;;16.30;100.00;99096.78;1760746;80;20173;-61
2022/09/11 03:54:34;;;;;;;1.60;1.50;;;;;;;16.24;100.00;99095.93;1759570;80;21601;-60
2022/09/11 03:57:01;;;;;;;;;;;;;;;16.15;100.00;99111.20;1766897;80;21752;-60
2022/09/11 03:59:27;;;;;;;1.35;1.25;;;;;;;16.03;100.00;99108.98;1746051;80;20431;-61
2022/09/11 04:01:54;;;;;;;1.55;1.25;;;;;;;15.87;100.00;99111.06;1749504;80;21483;-61
2022/09/11 04:04:21;;;;;;;1.02;1.02;;;;;;;15.77;100.00;99116.19;1691738;82;21592;-62
2022/09/11 04:06:49;;;;;;;;;;;;;;;15.66;100.00;99114.77;1752375;80;20928;-65
2022/09/11 04:09:16;;;;;;;0.85;0.85;;;;;;;15.52;100.00;99117.06;1744690;80;21926;-60
2022/09/11 04:11:44;;;;;;;1.12;0.70;;;;;;;15.41;100.00;99123.15;1758199;80;21550;-60
2022/09/11 04:14:13;;;;;;;1.05;0.95;;;;;;;15.33;100.00;99122.38;1751560;80;21521;-60
2022/09/11 04:16:40;;;;;;;2.02;0.55;;;;;;;15.31;100.00;99122.09;1758775;80;21446;-63
2022/09/11 04:19:10;;;;;;;0.80;0.50;;;;;;;15.27;100.00;99115.33;1751211;80;21013;-60
2022/09/11 04:21:37;;;;;;;0.82;0.60;;;;;;;15.23;100.00;99114.69;1757189;80;21798;-62
2022/09/11 04:24:04;;;;;;;0.65;0.65;;;;;;;15.16;100.00;99120.91;1760423;80;21581;-62
2022/09/11 04:26:32;;;;;;;0.70;0.70;;;;;;;15.16;100.00;99131.95;1755116;80;21452;-61
2022/09/11 04:29:01;;;;;;;0.53;0.53;;;;;;;15.13;100.00;99128.22;1749988;80;21447;-60
2022/09/11 04:31:28;;;;;;;1.17;0.72;;;;;;;15.13;100.00;99128.22;1738964;80;21562;-61
2022/09/11 04:33:55;;;;;;;0.78;0.78;;;;;;;15.12;100.00;99138.42;1756884;80;22009;-60
2022/09/11 04:36:23;;;;;;;0.80;0.60;;;;;;;15.08;100.00;99131.66;1747277;80;21569;-60
2022/09/11 04:38:55;;;;;;;0.40;0.40;;;;;;;15.09;100.00;99132.04;1757663;80;21436;-62
2022/09/11 04:41:22;;;;;;;1.30;0.80;;;;;;;15.05;100.00;99137.16;1762654;80;21515;-59
2022/09/11 04:43:55;;;;;;;0.50;0.50;;;;;;;15.05;100.00;99138.02;1741372;80;21427;-60
2022/09/11 04:46:23;;;;;;;2.08;0.70;;;;;;;15.07;100.00;99133.92;1729689;80;21874;-60
2022/09/11 04:49:04;;;;;;;0.75;0.75;;;;;;;15.07;100.00;99132.59;1763110;80;21470;-59
2022/09/11 04:51:32;;;;;;;0.90;0.78;;;;;;;15.02;100.00;99128.95;1756896;80;21428;-61
2022/09/11 04:53:59;;;;;;;1.90;0.60;;;;;;;14.95;100.00;99121.91;1716282;80;21456;-62
2022/09/11 04:56:30;;;;;;;0.62;0.62;;;;;;;14.96;100.00;99129.39;1703742;82;20975;-60
2022/09/11 04:59:04;;;;;;;0.65;0.65;;;;;;;15.01;100.00;99116.66;1758733;80;21767;-62
2022/09/11 05:01:33;;;;;;;0.70;0.70;;;;;;;15.06;100.00;99118.52;1761341;80;21514;-62
2022/09/11 05:04:00;;;;;;;1.30;0.98;;;;;;;15.10;100.00;99125.77;1755040;80;21466;-62
2022/09/11 05:06:29;;;;;;;3.12;0.50;;;;;;;15.09;100.00;99116.99;1759454;80;21506;-63
2022/09/11 05:09:02;;;;;;;0.40;0.40;;;;;;;15.10;100.00;99118.67;1762396;80;21447;-63
2022/09/11 05:11:30;;;;;;;0.72;0.72;;;;;;;15.14;100.00;99116.20;1758788;80;21792;-61
2022/09/11 05:13:58;;;;;;;1.32;0.70;;;;;;;15.13;100.00;99121.11;1765016;80;21573;-62
2022/09/11 05:16:28;;;;;;;0.82;0.82;;;;;;;15.13;100.00;99126.41;1752490;80;21553;-62
2022/09/11 05:18:56;;;;;;;2.25;0.75;;;;;;;15.11;100.00;99126.16;1751079;80;21498;-63
2022/09/11 05:21:24;;;;;;;0.95;0.80;;;;;;;15.14;100.00;99134.73;1755027;80;21450;-62
2022/09/11 05:23:53;;;;;;;0.80;0.80;;;;;;;15.18;100.00;99133.56;1756994;80;21763;-62
2022/09/11 05:26:22;;;;;;;0.80;0.80;;;;;;;15.14;100.00;99133.41;1764350;80;21570;-63
2022/09/11 05:29:03;;;;;;;0.85;0.85;;;;;;;15.12;100.00;99148.53;1760678;80;21571;-62
2022/09/11 05:31:33;;;;;;;1.10;1.00;;;;;;;15.10;100.00;99146.47;1757177;80;21412;-63
2022/09/11 05:34:00;;;;;;;0.80;0.80;;;;;;;15.17;100.00;99154.85;1759238;80;21420;-62
2022/09/11 05:36:29;;;;;;;1.05;0.78;;;;;;;15.25;100.00;99155.15;1754369;80;21875;-65
2022/09/11 05:38:58;;;;;;;0.80;0.80;;;;;;;15.26;100.00;99154.20;1751362;80;21006;-63
2022/09/11 05:41:25;;;;;;;0.73;0.73;;;;;;;15.29;100.00;99150.00;1727813;82;21593;-62
2022/09/11 05:43:52;;;;;;;1.57;0.77;;;;;;;15.28;100.00;99150.14;1764198;80;21193;-61
2022/09/11 05:46:19;;;;;;;1.35;0.85;;;;;;;15.26;100.00;99146.27;1751699;80;22365;-62
2022/09/11 05:48:48;;;;;;;0.70;0.70;;;;;;;15.27;100.00;99152.40;1755035;80;21518;-63
2022/09/11 05:51:18;;;;;;;0.50;0.50;;;;;;;15.24;100.00;99149.95;1757513;80;21507;-63
2022/09/11 05:53:45;;;;;;;0.55;0.53;;;;;;;15.26;100.00;99154.70;1756262;80;21508;-63
2022/09/11 05:56:14;;;;;;;0.83;0.60;;;;;;;15.29;100.00;99153.98;1754167;80;21121;-62
2022/09/11 05:58:42;;;;;;;0.47;0.47;;;;;;;15.30;100.00;99150.39;1743382;80;21538;-62
2022/09/11 06:01:14;;;;;;;0.62;0.60;;;;;;;15.32;100.00;99141.85;1758003;80;21487;-62
2022/09/11 06:03:42;;;;;;;1.57;0.93;;;;;;;15.38;100.00;99141.41;1756634;80;21613;-62
2022/09/11 06:06:11;;;;;;;1.47;0.65;;;;;;;15.35;100.00;99140.33;1759751;80;20987;-62
2022/09/11 06:08:39;;;;;;;2.15;0.60;;;;;;;15.36;100.00;99142.48;1742106;80;21476;-63
2022/09/11 06:11:06;;;;;;;0.57;0.57;;;;;;;15.44;100.00;99142.78;1746589;80;21577;-63
2022/09/11 06:13:37;;;;;;;0.50;0.50;;;;;;;15.47;100.00;99139.09;1741734;80;21539;-64
2022/09/11 06:16:08;;;;;;;1.37;0.50;;;;;;;15.56;100.00;99138.44;1742339;80;21559;-65
2022/09/11 06:18:35;;;;;;;0.88;0.60;;;;;;;15.61;100.00;99137.60;1735956;80;21487;-62
2022/09/11 06:21:08;;;;;;;1.02;0.57;;;;;;;15.63;100.00;99134.84;1742304;80;21495;-65
2022/09/11 06:23:38;;;;;;;2.10;0.40;;;;;;;15.67;100.00;99133.67;1747942;80;21590;-66
2022/09/11 06:26:09;;;;;;;0.50;0.50;;;;;;;15.71;100.00;99137.33;1749407;80;21974;-66
2022/09/11 06:28:37;;;;;;;0.42;0.42;;;;;;;15.75;100.00;99135.34;1744513;80;21507;-65
2022/09/11 06:31:06;;;;;;;0.93;0.65;;;;;;;15.80;100.00;99141.62;1750871;80;21491;-66
2022/09/11 06:33:35;;;;;;;0.68;0.60;;;;;;;15.86;100.00;99136.73;1717163;82;21557;-64
2022/09/11 06:36:06;;;;;;;0.60;0.60;;;;;;;15.91;100.00;99132.41;1744406;80;21040;-64
2022/09/11 06:38:33;;;;;;;0.40;0.40;;;;;;;15.88;100.00;99132.16;1743573;80;21828;-64
2022/09/11 06:41:02;;;;;;;1.27;0.57;;;;;;;15.88;100.00;99140.11;1744132;80;21516;-65
2022/09/11 06:43:31;;;;;;;0.50;0.50;;;;;;;15.88;100.00;99137.47;1749735;80;21515;-65
2022/09/11 06:46:08;;;;;;;2.47;0.50;;;;;;;15.86;100.00;99142.03;1746731;80;21545;-64
2022/09/11 06:48:35;;;;;;;0.75;0.75;;;;;;;15.80;100.00;99142.95;1743825;80;21569;-65
2022/09/11 06:51:06;;;;;;;0.50;0.50;;;;;;;15.75;100.00;99144.12;1746408;80;22188;-65
2022/09/11 06:53:33;;;;;;;1.62;0.80;;;;;;;15.81;100.00;99144.16;1754951;80;21091;-62
2022/09/11 06:56:03;;;;;;;0.60;0.60;;;;;;;15.85;100.00;99144.30;1738115;80;20965;-63
2022/09/11 06:58:30;;;;;;;1.20;0.70;;;;;;;15.91;100.00;99149.15;1741007;80;20999;-62
2022/09/11 07:01:04;;;;;;;1.30;0.60;;;;;;;15.94;100.00;99152.08;1750013;80;21002;-63
2022/09/11 07:03:31;;;;;;;0.57;0.57;;;;;;;15.96;100.00;99151.00;1758317;80;21831;-62
2022/09/11 07:06:00;;;;;;;1.10;0.62;;;;;;;16.02;100.00;99154.17;1744604;80;21357;-62
2022/09/11 07:08:27;;;;;;;0.70;0.70;;;;;;;15.97;100.00;99159.79;1759391;80;21073;-63
2022/09/11 07:11:03;;;;;;;0.60;0.60;;;;;;;16.02;100.00;99162.13;1755538;80;21699;-63
2022/09/11 07:13:33;;;;;;;0.57;0.57;;;;;;;16.04;100.00;99161.04;1755082;80;21564;-63
2022/09/11 07:16:02;;;;;;;0.85;0.85;;;;;;;16.10;100.00;99158.42;1751746;80;21865;-63
2022/09/11 07:18:35;;;;;;;0.78;0.78;;;;;;;16.15;100.00;99161.09;1749751;80;21625;-63
2022/09/11 07:21:10;;;;;;;0.80;0.80;;;;;;;16.09;100.00;99156.25;1688720;84;21001;-62
2022/09/11 07:23:40;;;;;;;1.20;1.10;;;;;;;16.05;100.00;99152.14;1728103;80;21627;-62
2022/09/11 07:26:11;;;;;;;0.90;0.90;;;;;;;16.16;100.00;99169.89;1746751;80;21625;-64
2022/09/11 07:28:38;;;;;;;1.87;1.00;;;;;;;16.16;100.00;99169.89;1697200;83;21933;-64
2022/09/11 07:31:13;;;;;;;1.62;0.80;;;;;;;16.21;100.00;99172.23;1672868;84;21013;-62
2022/09/11 07:33:44;;;;;;;1.00;1.00;;;;;;;16.23;100.00;99172.95;1744557;80;21515;-61
2022/09/11 07:36:13;;;;;;;1.67;1.07;;;;;;;16.29;100.00;99168.06;1736837;80;21077;-63
2022/09/11 07:38:43;;;;;;;0.85;0.85;;;;;;;16.37;100.00;99161.31;1752602;80;21581;-62
2022/09/11 07:41:11;;;;;;;1.15;1.05;;;;;;;16.38;100.00;99156.39;1753955;80;21852;-63
2022/09/11 07:43:44;;;;;;;1.12;1.02;;;;;;;16.42;100.00;99160.50;1755879;80;21448;-63
2022/09/11 07:46:11;;;;;;;1.10;1.10;;;;;;;16.48;100.00;99161.36;1750339;80;21566;-63
2022/09/11 07:48:39;;;;;;;2.92;1.10;;;;;;;16.51;100.00;99162.47;1745947;80;21002;-63
2022/09/11 07:51:10;;;;;;;4.78;2.62;;;;;;;16.48;100.00;99161.36;1738460;80;21431;-61
2022/09/11 07:53:42;;;;;;;1.95;1.85;;;;;;;16.48;100.00;99164.88;1755177;80;21748;-61
2022/09/11 07:56:17;;;;;;;1.62;1.52;;;;;;;16.53;100.00;99159.21;1753316;80;21601;-62
2022/09/11 07:58:44;;;;;;;1.70;1.60;;;;;;;16.55;100.00;99161.27;1695252;83;21026;-61
2022/09/11 08:01:14;;;;;;;2.98;1.55;;;;;;;16.53;100.00;99164.03;1699072;83;21510;-62
2022/09/11 08:03:42;;;;;;;2.33;1.40;;;;;;;16.52;100.00;99155.72;1759449;80;21597;-62
2022/09/11 08:06:15;;;;;;;1.50;1.40;;;;;;;16.55;100.00;99158.61;1762764;80;22183;-62
2022/09/11 08:08:46;;;;;;;1.50;1.40;;;;;;;16.56;100.00;99164.30;1752800;80;21489;-62
2022/09/11 08:11:16;;;;;;;2.20;2.00;;;;;;;16.54;100.00;99165.73;1759459;80;21525;-61
2022/09/11 08:13:52;;;;;;;3.27;2.77;;;;;;;16.53;100.00;99165.84;1760595;80;21498;-62
2022/09/11 08:16:21;;;;;;;2.72;2.52;;;;;;;16.57;100.00;99159.34;1745696;80;21416;-62
2022/09/11 08:18:51;;;;;;;3.30;3.00;;;;;;;16.68;100.00;99164.69;1765387;80;21419;-63
2022/09/11 08:21:18;;;;;;;3.42;2.75;;;;;;;16.76;100.00;99154.81;1754048;80;25533;-63
2022/09/11 08:23:45;;;;;;;2.60;2.40;;;;;;;16.84;100.00;99152.47;1750460;80;21502;-63
2022/09/11 08:26:16;;;;;;;2.67;2.37;;;;;;;16.91;100.00;99142.20;1758267;80;21544;-62
2022/09/11 08:28:43;;;;;;;2.95;2.65;;;;;;;16.91;100.00;99132.91;1754971;80;21579;-62
2022/09/11 08:31:12;;;;;;;2.55;2.45;;;;;;;16.95;100.00;99129.54;1757877;80;21724;-62
2022/09/11 08:33:39;;;;;;;2.40;2.25;;;;;;;16.95;99.36;99134.36;1758937;80;21404;-62
2022/09/11 08:36:09;;;;;;;2.17;1.98;;;;;;;16.97;100.00;99147.06;1753418;80;21494;-61
2022/09/11 08:38:37;;;;;;;2.22;2.02;;;;;;;17.06;100.00;99143.67;1746342;80;21503;-61
2022/09/11 08:41:31;;;;;;;4.53;2.40;;;;;;;17.16;100.00;99145.16;1757790;80;21507;-59
2022/09/11 08:44:07;;;;;;;2.42;2.33;;;;;;;17.22;99.60;99143.83;1748347;80;21836;-61
2022/09/11 08:46:46;;;;;;;2.30;2.20;;;;;;;17.10;98.83;99149.13;1747710;80;21593;-61
2022/09/11 08:49:45;;;;;;;2.60;2.40;;;;;;;17.03;98.93;99141.27;1749679;80;21011;-65
2022/09/11 08:52:14;;;;;;;2.25;2.15;;;;;;;16.99;98.66;99134.52;1757084;80;21030;-61
2022/09/11 08:54:42;;;;;;;4.92;2.47;;;;;;;16.95;98.83;99137.02;1766008;80;21104;-62
2022/09/11 08:57:53;;;;;;;2.58;2.35;;;;;;;16.90;98.92;99141.37;1759225;80;21595;-61
2022/09/11 09:00:23;;;;;;;2.42;2.22;;;;;;;16.90;99.03;99140.05;1729143;81;21588;-62
2022/09/11 09:03:25;;;;;;;2.62;2.42;;;;;;;16.97;99.45;99147.06;1733386;80;21566;-61
2022/09/11 09:06:03;;;;;;;2.45;2.33;;;;;;;17.01;98.47;99147.64;1728772;81;21411;-62
2022/09/11 09:08:55;;;;;;;2.30;2.20;;;;;;;16.97;97.76;99148.85;1739013;80;21505;-63
2022/09/11 09:11:43;;;;;;;2.37;2.20;;;;;;;16.99;97.56;99150.45;1738691;80;22104;-62
2022/09/11 09:14:34;;;;;;;3.25;2.50;;;;;;;17.06;97.30;99152.97;1732296;80;21467;-63
2022/09/11 09:17:12;;;;;;;2.40;2.30;;;;;;;17.13;98.45;99150.69;1731045;81;21435;-63
2022/09/11 09:20:01;;;;;;;2.58;2.45;;;;;;;17.21;98.77;99142.96;1733051;80;21505;-63
2022/09/11 09:22:55;;;;;;;2.80;2.55;;;;;;;17.22;97.00;99145.16;1730428;81;21641;-62
2022/09/11 09:25:23;;;;;;;3.00;2.80;;;;;;;17.20;97.90;99145.27;1729968;81;21777;-65
2022/09/11 09:27:56;;;;;;;2.67;2.58;;;;;;;17.21;97.49;99144.28;1724726;81;21386;-63
2022/09/11 09:30:26;;;;;;;3.00;2.80;;;;;;;17.19;97.29;99150.70;1737451;80;21562;-66
2022/09/11 09:33:14;;;;;;;2.80;2.60;;;;;;;17.17;97.07;99144.66;1732254;81;21455;-65
2022/09/11 09:35:43;;;;;;;2.50;2.40;;;;;;;17.21;97.54;99138.98;1738879;80;21642;-63
2022/09/11 09:38:17;;;;;;;2.75;2.55;;;;;;;17.22;97.93;99139.35;1728828;80;21755;-64
2022/09/11 09:41:05;;;;;;;2.47;2.27;;;;;;;17.30;98.28;99136.09;1734053;81;21533;-64
2022/09/11 09:44:23;;;;;;;2.92;2.72;;;;;;;17.37;97.43;99133.31;1735780;81;21436;-66
2022/09/11 09:46:52;;;;;;;2.62;2.42;;;;;;;17.42;97.61;99135.14;1675602;81;21412;-63
2022/09/11 09:49:32;;;;;;;3.77;2.70;;;;;;;17.56;97.23;99141.16;1728927;81;21382;-63
2022/09/11 09:52:04;;;;;;;2.77;2.58;;;;;;;17.61;96.54;99138.96;1731688;81;21836;-63
2022/09/11 09:54:32;;;;;;;2.72;2.50;;;;;;;17.64;96.05;99137.40;1691923;82;21585;-65
2022/09/11 09:57:05;;;;;;;3.33;3.12;;;;;;;17.68;96.03;99135.69;1738696;80;21535;-63
2022/09/11 09:59:41;;;;;;;3.17;2.98;;;;;;;17.75;96.43;99140.04;1705989;82;21487;-64
2022/09/11 10:02:07;;;;;;;2.83;2.62;;;;;;;17.81;96.14;99138.20;1735293;82;21570;-63
2022/09/11 10:04:34;;;;;;;2.80;2.60;;;;;;;17.89;96.22;99134.50;1734451;82;22082;-64
2022/09/11 10:07:13;;;;;;;2.70;2.57;;;;;;;17.93;94.98;99135.06;1733303;82;21591;-64
2022/09/11 10:09:45;;;;;;;2.52;2.40;;;;;;;17.97;95.91;99133.00;1721682;82;21467;-64
2022/09/11 10:12:17;;;;;;;2.77;2.60;;;;;;;18.06;95.21;99124.27;1735182;81;21538;-64
2022/09/11 10:15:01;;;;;;;3.08;2.70;;;;;;;18.15;95.55;99130.16;1727078;82;21617;-65
2022/09/11 10:17:31;;;;;;;2.67;2.58;;;;;;;18.26;95.15;99130.62;1731677;82;21894;-66
2022/09/11 10:20:21;;;;;;;2.50;2.40;;;;;;;18.38;94.86;99131.41;1726827;82;21521;-68
2022/09/11 10:22:48;;;;;;;2.62;2.42;;;;;;;18.48;93.99;99134.52;1721599;81;21589;-64
2022/09/11 10:25:18;;;;;;;2.40;2.30;;;;;;;18.51;93.27;99129.41;1726661;82;28544;-65
2022/09/11 10:28:05;;;;;;;2.55;2.35;;;;;;;18.57;91.67;99119.59;1728437;82;21576;-65
2022/09/11 10:30:36;;;;;;;2.55;2.42;;;;;;;18.60;91.98;99121.98;1697389;82;21681;-64
2022/09/11 10:33:27;;;;;;;2.33;2.22;;;;;;;18.58;90.10;99116.44;1725699;80;21443;-64
2022/09/11 10:35:54;;;;;;;2.65;2.20;;;;;;;18.59;91.21;99120.31;1728218;82;21564;-66
2022/09/11 10:38:37;;;;;;;3.75;2.27;;;;;;;18.64;90.57;99122.07;1724900;82;21530;-64
2022/09/11 10:41:18;;;;;;;2.10;2.00;;;;;;;18.73;90.31;99120.45;1720111;82;21615;-64
2022/09/11 10:43:55;;;;;;;2.20;2.10;;;;;;;18.76;89.12;99120.67;1739564;80;21969;-63
2022/09/11 10:46:27;;;;;;;2.10;2.00;;;;;;;18.82;89.45;99122.87;1728207;82;21427;-64
2022/09/11 10:48:59;;;;;;;2.83;2.45;;;;;;;18.81;87.84;99118.00;1736867;80;21465;-64
2022/09/11 10:51:28;;;;;;;2.25;2.15;;;;;;;18.74;86.14;99113.30;1708366;82;21438;-64
2022/09/11 10:54:27;;;;;;;3.08;2.20;;;;;;;18.72;87.61;99105.94;1724916;81;21547;-66
2022/09/11 10:57:28;;;;;;;2.65;2.45;;;;;;;18.73;87.25;99096.98;1729237;81;21897;-64
2022/09/11 11:00:20;;;;;;;2.80;2.55;;;;;;;18.77;86.63;99097.08;1733828;80;21568;-60
2022/09/11 11:02:54;;;;;;;2.40;2.30;;;;;;;18.82;87.03;99097.57;1733347;81;21092;-59
2022/09/11 11:05:46;;;;;;;3.08;2.15;;;;;;;18.98;86.80;99087.76;1726710;80;21455;-61
2022/09/11 11:08:57;;;;;;;1.90;1.80;;;;;;;19.16;87.33;99090.66;1731317;80;21930;-61
2022/09/11 11:11:50;;;;;;;2.27;2.17;;;;;;;19.36;86.36;99091.05;1730201;82;21846;-61
2022/09/11 11:14:58;;;;;;;2.62;2.42;;;;;;;19.45;83.72;99090.24;1725003;80;21664;-60
2022/09/11 11:17:40;;;;;;;2.50;2.30;;;;;;;19.31;82.73;99084.44;1715297;82;21609;-62
2022/09/11 11:20:18;;;;;;;2.37;2.27;;;;;;;19.29;84.25;99087.27;1728183;82;21533;-63
2022/09/11 11:23:23;;;;;;;2.50;2.40;;;;;;;19.31;83.46;99085.31;1726135;82;21596;-62
2022/09/11 11:26:01;;;;;;;2.60;2.40;;;;;;;19.28;83.69;99092.73;1729704;81;21798;-63
2022/09/11 11:29:13;;;;;;;3.02;2.40;;;;;;;19.14;82.79;99084.63;1732992;82;21440;-60
2022/09/11 11:32:09;;;;;;;2.50;2.40;;;;;;;19.19;84.69;99085.04;1736327;82;21494;-62
2022/09/11 11:35:08;;;;;;;2.45;2.35;;;;;;;19.14;84.35;99089.45;1730779;81;21047;-61
2022/09/11 11:37:41;;;;;;;2.25;2.15;;;;;;;19.08;83.97;99087.80;1739443;80;21081;-63
2022/09/11 11:40:30;;;;;;;2.55;2.37;;;;;;;19.02;84.03;99085.17;1732930;81;21744;-61
2022/09/11 11:43:06;;;;;;;2.30;2.20;;;;;;;18.92;84.26;99083.80;1734267;82;21460;-60
2022/09/11 11:46:00;;;;;;;2.67;2.50;;;;;;;18.92;84.26;99083.80;1693167;83;21452;-59
2022/09/11 11:48:58;;;;;;;3.12;2.67;;;;;;;18.87;84.65;99083.34;1695915;83;21446;-59
2022/09/11 11:51:27;;;;;;;2.98;2.77;;;;;;;18.74;84.54;99086.21;1735922;80;21465;-59
2022/09/11 11:54:08;;;;;;;2.35;2.25;;;;;;;18.72;85.50;99087.30;1712035;82;21740;-59
2022/09/11 11:56:50;;;;;;;3.27;2.27;;;;;;;18.73;85.38;99088.50;1735699;82;21557;-59
2022/09/11 11:59:32;;;;;;;2.42;2.27;;;;;;;18.68;85.13;99087.58;1729466;81;21504;-59
2022/09/11 12:02:12;;;;;;;2.60;2.37;;;;;;;18.63;84.96;99088.95;1743944;81;21004;-60
2022/09/11 12:05:02;;;;;;;3.02;2.83;;;;;;;18.60;85.05;99090.03;1749112;81;21583;-60